createdAt,value
2016-08-03T13:42:13.450Z,36
2016-08-03T13:42:32.983Z,36
2016-08-03T13:42:52.982Z,40
2016-08-03T14:33:16.699Z,7744
2016-08-03T14:33:36.637Z,7960
2016-08-03T14:33:56.657Z,8080
2016-08-03T14:34:16.664Z,8136
2016-08-03T14:34:36.662Z,8176
2016-08-03T14:34:56.662Z,8200
2016-08-03T14:35:16.673Z,8248
2016-08-03T14:35:36.708Z,8336
2016-08-03T14:35:56.684Z,8444
2016-08-03T14:36:16.833Z,8508
2016-08-03T14:36:36.669Z,8560
2016-08-03T14:36:56.690Z,8516
2016-08-03T14:37:16.677Z,8408
2016-08-03T14:37:36.693Z,8296
2016-08-03T14:37:56.767Z,8156
2016-08-03T14:38:16.876Z,7948
2016-08-03T14:38:36.862Z,7680
2016-08-03T14:38:57.035Z,7340
2016-08-03T14:39:16.811Z,6972
2016-08-03T14:39:36.785Z,6632
2016-08-03T14:39:57.293Z,6360
2016-08-03T14:40:16.804Z,6168
2016-08-03T14:40:36.819Z,6044
2016-08-03T14:40:57.293Z,5984
2016-08-03T14:41:16.956Z,5976
2016-08-03T14:41:36.920Z,6052
2016-08-03T14:41:56.746Z,6208
2016-08-03T14:42:16.839Z,6468
2016-08-03T14:42:36.752Z,6780
2016-08-03T14:42:56.893Z,7092
2016-08-03T14:43:16.806Z,7384
2016-08-03T14:43:36.917Z,7652
2016-08-03T14:43:56.825Z,7872
2016-08-03T14:44:16.844Z,8056
2016-08-03T14:44:36.958Z,8220
2016-08-03T14:44:56.850Z,8384
2016-08-03T14:45:16.989Z,8560
2016-08-03T14:45:36.855Z,8672
2016-08-03T14:45:56.836Z,8748
2016-08-03T14:46:16.789Z,8792
2016-08-03T14:46:36.957Z,8768
2016-08-03T14:46:56.794Z,8708
2016-08-03T14:47:16.856Z,8660
2016-08-03T14:47:36.833Z,8572
2016-08-03T14:47:56.913Z,8364
2016-08-03T14:48:16.876Z,8056
2016-08-03T14:48:36.787Z,7700
2016-08-03T14:48:56.786Z,7392
2016-08-03T14:49:16.798Z,7176
2016-08-03T14:49:36.787Z,7116
2016-08-03T14:49:56.798Z,7212
2016-08-03T14:50:16.808Z,7412
2016-08-03T14:50:37.243Z,7704
2016-08-03T14:50:57.051Z,8024
2016-08-03T14:51:16.966Z,8308
2016-08-03T14:51:36.818Z,8472
2016-08-03T14:51:56.950Z,8460
2016-08-03T14:52:16.898Z,8232
2016-08-03T14:52:36.878Z,7844
2016-08-03T14:52:56.823Z,7464
2016-08-03T14:53:17.767Z,7108
2016-08-03T14:53:36.914Z,6940
2016-08-03T14:53:56.977Z,6980
2016-08-03T14:54:17.005Z,7100
2016-08-03T14:54:37.063Z,7316
2016-08-03T14:54:56.903Z,7424
2016-08-03T14:55:16.979Z,7424
2016-08-03T14:55:36.921Z,7376
2016-08-03T14:55:57.141Z,7364
2016-08-03T14:56:17.212Z,7472
2016-08-03T14:56:36.861Z,7776
2016-08-03T14:56:56.878Z,8192
2016-08-03T14:57:17.300Z,8688
2016-08-03T14:57:37.207Z,9060
2016-08-03T14:57:57.221Z,9272
2016-08-03T14:58:17.068Z,9304
2016-08-03T14:58:37.197Z,9196
2016-08-03T14:58:57.015Z,9060
2016-08-03T14:59:17.040Z,8944
2016-08-03T14:59:37.032Z,8896
2016-08-03T14:59:56.960Z,9064
2016-08-03T15:00:16.885Z,9388
2016-08-03T15:00:37.082Z,9812
2016-08-03T15:00:57.050Z,10256
2016-08-03T15:01:17.931Z,10704
2016-08-03T15:01:37.729Z,11112
2016-08-03T15:01:58.858Z,11460
2016-08-03T15:02:18.280Z,11712
2016-08-03T15:02:40.083Z,11908
2016-08-03T15:03:03.028Z,12012
2016-08-03T15:03:22.837Z,12076
2016-08-03T15:03:40.864Z,12136
2016-08-03T15:04:00.366Z,12224
2016-08-03T15:04:25.294Z,12364
2016-08-03T15:04:37.336Z,12448
2016-08-03T15:04:57.480Z,12596
2016-08-03T15:05:17.961Z,12748
2016-08-03T15:05:37.067Z,12868
2016-08-03T15:05:56.962Z,12916
2016-08-03T15:06:16.958Z,12812
2016-08-03T15:06:37.017Z,12576
2016-08-03T15:06:57.015Z,12132
2016-08-03T15:07:16.951Z,11424
2016-08-03T15:07:38.220Z,10640
2016-08-03T15:07:57.677Z,9968
2016-08-03T15:08:17.167Z,9456
2016-08-03T15:08:36.960Z,9056
2016-08-03T15:08:57.150Z,8652
2016-08-03T15:09:17.443Z,8224
2016-08-03T15:09:37.004Z,7840
2016-08-03T15:09:57.005Z,7452
2016-08-03T15:10:18.486Z,7252
2016-08-03T15:10:36.984Z,7152
2016-08-03T15:10:56.987Z,6956
2016-08-03T15:11:17.567Z,6660
2016-08-03T15:11:39.481Z,6456
